Young Harris, GA

6:26 AM EDT on July 06, 2015 (GMT -0400)
NW Brasstown Bald Mtn. Valley | | Change Station
CLOSE
Current Station
Personal Weather Station
Location: Young Harris, GA
Elevation: 1959 ft
Nearby Weather Stations

Elev 1959 ft 34.90 °N, 83.86 °W | Updated 5 seconds ago

Overcast
Overcast
63.3 °F
Feels Like 63.3 °F
N
0.0
Wind Variable Wind from SSE
Gusts 0.0 mph

Today
High -- | Low -- °F
--% Chance of Precip.
Yesterday
High -- | Low -- °F
Precip. -- in
6:27 AM 8:52 PM
Waning Gibbous, 77% visible
Pressure 30.18 in
Visibility 0.2 miles
Clouds
Dew Point 51 °F
Humidity 65%
Rainfall 0.00 in
Snow Depth Not available.
UV Not available.
Pollen .50 out of 12
Air Quality Not available.
Flu Activity Not available.
METAR KDZJ 061015Z AUTO 00000KT 1/4SM HZ 18/14 A3018 RMK AO2 T01830141

More Conditions Fewer Conditions

Pressure 30.18 in
Visibility 0.2 miles
Clouds
Dew Point 51 °F
Humidity 65%
Rainfall 0.00 in
Snow Depth Not available.
UV Not available.
Pollen .50 out of 12
Air Quality Not available.
Flu Activity Not available.
METAR KDZJ 061015Z AUTO 00000KT 1/4SM HZ 18/14 A3018 RMK AO2 T01830141

More Conditions Fewer Conditions

10-Day Weather Forecast

×

Almanac

Astronomy

Jul. 06, 2015 Rise Set
Actual Time
Civil Twilight
Nautical Twilight
Astronomical Twilight
Moon
Length of Visible Light
Length of Day
Tomorrow will be .
, % of the Moon is Illuminated

Today's Extremes

State Highs State Lows

Community

WunderPhotos

Upload Photos

1,835,528 photos uploaded!

WunderBlogs® & News

Nearby

Air Quality

  Air Quality AQ Index Pollutant
Not available.

Snow Depth

Station Depth Elevation

Earthquake Activity

City Distance Mag. Time & Date
Minimum magnitude displayed is 2.5.

Coastal Water Temperatures

Place Temperature

Stations

Nearby Weather Stations

Station Location Temp. Windchill Dew Point Humidity Wind Precip. Elev Updated Type